sensor_id;sensor_type;location;lat;lon;timestamp;temperature;humidity
50570;DHT22;36525;49.398;7.614;2022-12-20T08:33:35;10.20;99.90
50570;DHT22;36525;49.398;7.614;2022-12-20T08:43:34;10.40;99.90
50570;DHT22;36525;49.398;7.614;2022-12-20T09:43:57;11.70;99.90
50570;DHT22;36525;49.398;7.614;2022-12-20T09:48:52;11.70;99.90
50570;DHT22;36525;49.398;7.614;2022-12-20T09:57:04;12.10;99.90
50570;DHT22;36525;49.398;7.614;2022-12-20T09:59:36;12.10;99.90
50570;DHT22;36525;49.398;7.614;2022-12-20T10:02:19;12.10;99.90
50570;DHT22;36525;49.398;7.614;2022-12-20T10:05:28;12.10;99.90
50570;DHT22;36525;49.398;7.614;2022-12-20T10:08:49;12.10;99.90
50570;DHT22;36525;49.398;7.614;2022-12-20T10:20:57;12.10;99.90
50570;DHT22;36525;49.398;7.614;2022-12-20T10:23:32;12.10;99.90
50570;DHT22;36525;49.398;7.614;2022-12-20T10:26:08;12.20;99.90
50570;DHT22;36525;49.398;7.614;2022-12-20T10:28:37;12.20;99.90
50570;DHT22;36525;49.398;7.614;2022-12-20T10:31:09;12.20;99.90
50570;DHT22;36525;49.398;7.614;2022-12-20T10:33:39;12.20;99.90
50570;DHT22;36525;49.398;7.614;2022-12-20T10:36:37;12.20;99.90
50570;DHT22;36525;49.398;7.614;2022-12-20T10:39:08;12.20;99.90
50570;DHT22;36525;49.398;7.614;2022-12-20T10:44:18;12.30;99.90
50570;DHT22;36525;49.398;7.614;2022-12-20T10:46:52;12.50;99.90
50570;DHT22;36525;49.398;7.614;2022-12-20T10:54:37;12.50;99.90
50570;DHT22;36525;49.398;7.614;2022-12-20T10:59:51;12.50;99.90
50570;DHT22;36525;49.398;7.614;2022-12-20T11:02:35;12.50;99.90
50570;DHT22;36525;49.398;7.614;2022-12-20T11:07:52;12.30;99.90
50570;DHT22;36525;49.398;7.614;2022-12-20T11:10:43;12.20;99.90
50570;DHT22;36525;49.398;7.614;2022-12-20T11:13:24;12.10;99.90
50570;DHT22;36525;49.398;7.614;2022-12-20T11:15:54;12.00;99.90
50570;DHT22;36525;49.398;7.614;2022-12-20T11:18:48;12.00;99.90
50570;DHT22;36525;49.398;7.614;2022-12-20T11:21:40;12.00;99.90
50570;DHT22;36525;49.398;7.614;2022-12-20T11:27:14;12.10;99.90
50570;DHT22;36525;49.398;7.614;2022-12-20T11:29:55;12.10;99.90
50570;DHT22;36525;49.398;7.614;2022-12-20T11:36:05;12.20;99.90
50570;DHT22;36525;49.398;7.614;2022-12-20T11:53:38;12.50;99.90
50570;DHT22;36525;49.398;7.614;2022-12-20T11:56:17;12.50;99.90
50570;DHT22;36525;49.398;7.614;2022-12-20T11:58:51;12.50;99.90
50570;DHT22;36525;49.398;7.614;2022-12-20T12:04:29;12.50;99.90
50570;DHT22;36525;49.398;7.614;2022-12-20T12:07:19;12.70;99.90
50570;DHT22;36525;49.398;7.614;2022-12-20T12:12:52;13.00;99.90
50570;DHT22;36525;49.398;7.614;2022-12-20T12:15:41;12.90;99.90
50570;DHT22;36525;49.398;7.614;2022-12-20T12:18:37;12.80;99.90
50570;DHT22;36525;49.398;7.614;2022-12-20T12:24:33;12.70;99.90
50570;DHT22;36525;49.398;7.614;2022-12-20T12:27:04;12.50;99.90
50570;DHT22;36525;49.398;7.614;2022-12-20T12:29:41;12.50;99.90
50570;DHT22;36525;49.398;7.614;2022-12-20T12:32:54;12.50;99.90
50570;DHT22;36525;49.398;7.614;2022-12-20T12:35:29;12.60;99.90
50570;DHT22;36525;49.398;7.614;2022-12-20T12:43:57;12.60;99.90
50570;DHT22;36525;49.398;7.614;2022-12-20T12:46:31;12.50;99.90
50570;DHT22;36525;49.398;7.614;2022-12-20T12:49:10;12.50;99.90
50570;DHT22;36525;49.398;7.614;2022-12-20T12:51:43;12.50;99.90
50570;DHT22;36525;49.398;7.614;2022-12-20T12:54:25;12.40;99.90
50570;DHT22;36525;49.398;7.614;2022-12-20T12:57:15;12.40;99.90
50570;DHT22;36525;49.398;7.614;2022-12-20T12:59:48;12.30;99.90
50570;DHT22;36525;49.398;7.614;2022-12-20T13:07:52;12.40;99.90
50570;DHT22;36525;49.398;7.614;2022-12-20T13:20:39;12.50;99.90
50570;DHT22;36525;49.398;7.614;2022-12-20T13:25:38;12.80;99.90
50570;DHT22;36525;49.398;7.614;2022-12-20T13:38:48;12.60;99.90
50570;DHT22;36525;49.398;7.614;2022-12-20T13:49:42;12.50;99.90
50570;DHT22;36525;49.398;7.614;2022-12-20T13:54:58;12.50;99.90
50570;DHT22;36525;49.398;7.614;2022-12-20T13:57:41;12.60;99.90
50570;DHT22;36525;49.398;7.614;2022-12-20T14:00:29;12.80;99.90
50570;DHT22;36525;49.398;7.614;2022-12-20T14:02:56;12.80;99.90
50570;DHT22;36525;49.398;7.614;2022-12-20T14:05:26;12.70;99.90
50570;DHT22;36525;49.398;7.614;2022-12-20T14:10:29;12.40;99.90
50570;DHT22;36525;49.398;7.614;2022-12-20T14:12:58;12.30;99.90
50570;DHT22;36525;49.398;7.614;2022-12-20T14:15:29;12.20;99.90
50570;DHT22;36525;49.398;7.614;2022-12-20T14:18:15;12.10;99.90
50570;DHT22;36525;49.398;7.614;2022-12-20T14:20:52;12.10;99.90
50570;DHT22;36525;49.398;7.614;2022-12-20T14:41:59;11.10;99.90
50570;DHT22;36525;49.398;7.614;2022-12-20T14:44:29;11.00;99.90
50570;DHT22;36525;49.398;7.614;2022-12-20T14:47:03;10.90;99.90
50570;DHT22;36525;49.398;7.614;2022-12-20T14:49:38;10.90;99.90
50570;DHT22;36525;49.398;7.614;2022-12-20T14:52:16;10.80;99.90
50570;DHT22;36525;49.398;7.614;2022-12-20T14:54:56;10.80;99.90
50570;DHT22;36525;49.398;7.614;2022-12-20T15:11:15;10.70;99.90
50570;DHT22;36525;49.398;7.614;2022-12-20T15:13:52;10.70;99.90
50570;DHT22;36525;49.398;7.614;2022-12-20T15:16:25;10.80;99.90
50570;DHT22;36525;49.398;7.614;2022-12-20T15:18:54;10.80;99.90
50570;DHT22;36525;49.398;7.614;2022-12-20T15:24:03;10.80;99.90
50570;DHT22;36525;49.398;7.614;2022-12-20T15:26:34;10.70;99.90
50570;DHT22;36525;49.398;7.614;2022-12-20T15:29:02;10.70;99.90
50570;DHT22;36525;49.398;7.614;2022-12-20T15:31:32;10.70;99.90
50570;DHT22;36525;49.398;7.614;2022-12-20T15:36:41;10.60;99.90
50570;DHT22;36525;49.398;7.614;2022-12-20T15:39:09;10.60;99.90
50570;DHT22;36525;49.398;7.614;2022-12-20T15:41:42;10.50;99.90
50570;DHT22;36525;49.398;7.614;2022-12-20T15:46:42;10.60;99.90
50570;DHT22;36525;49.398;7.614;2022-12-20T15:49:17;10.50;99.90
50570;DHT22;36525;49.398;7.614;2022-12-20T15:51:48;10.60;99.90
50570;DHT22;36525;49.398;7.614;2022-12-20T15:54:32;10.50;99.90
50570;DHT22;36525;49.398;7.614;2022-12-20T15:57:03;10.50;99.90
50570;DHT22;36525;49.398;7.614;2022-12-20T15:59:34;10.50;99.90
50570;DHT22;36525;49.398;7.614;2022-12-20T16:02:25;10.40;99.90
50570;DHT22;36525;49.398;7.614;2022-12-20T16:04:53;10.50;99.90
50570;DHT22;36525;49.398;7.614;2022-12-20T16:07:21;10.50;99.90
50570;DHT22;36525;49.398;7.614;2022-12-20T16:09:49;10.50;99.90
50570;DHT22;36525;49.398;7.614;2022-12-20T16:12:20;10.50;99.90
50570;DHT22;36525;49.398;7.614;2022-12-20T16:14:51;10.50;99.90
50570;DHT22;36525;49.398;7.614;2022-12-20T16:17:18;10.50;99.90
50570;DHT22;36525;49.398;7.614;2022-12-20T16:19:45;10.40;99.90
50570;DHT22;36525;49.398;7.614;2022-12-20T16:22:20;10.40;99.90
50570;DHT22;36525;49.398;7.614;2022-12-20T16:24:48;10.30;99.90
50570;DHT22;36525;49.398;7.614;2022-12-20T16:27:15;10.30;99.90
50570;DHT22;36525;49.398;7.614;2022-12-20T16:32:15;10.30;99.90
50570;DHT22;36525;49.398;7.614;2022-12-20T16:34:44;10.30;99.90
50570;DHT22;36525;49.398;7.614;2022-12-20T16:37:11;10.30;99.90
50570;DHT22;36525;49.398;7.614;2022-12-20T16:39:39;10.30;99.90
50570;DHT22;36525;49.398;7.614;2022-12-20T16:42:14;10.20;99.90
50570;DHT22;36525;49.398;7.614;2022-12-20T16:44:43;10.20;99.90
50570;DHT22;36525;49.398;7.614;2022-12-20T16:47:12;10.20;99.90
50570;DHT22;36525;49.398;7.614;2022-12-20T16:49:41;10.30;99.90
50570;DHT22;36525;49.398;7.614;2022-12-20T16:52:18;10.30;99.90
50570;DHT22;36525;49.398;7.614;2022-12-20T16:54:45;10.30;99.90
50570;DHT22;36525;49.398;7.614;2022-12-20T16:57:12;10.30;99.90
50570;DHT22;36525;49.398;7.614;2022-12-20T16:59:39;10.30;99.90
50570;DHT22;36525;49.398;7.614;2022-12-20T17:02:26;10.30;99.90
50570;DHT22;36525;49.398;7.614;2022-12-20T17:04:55;10.30;99.90
50570;DHT22;36525;49.398;7.614;2022-12-20T17:07:22;10.30;99.90
50570;DHT22;36525;49.398;7.614;2022-12-20T17:09:49;10.40;99.90
50570;DHT22;36525;49.398;7.614;2022-12-20T17:12:18;10.40;99.90
50570;DHT22;36525;49.398;7.614;2022-12-20T17:14:47;10.50;99.90
50570;DHT22;36525;49.398;7.614;2022-12-20T17:17:14;10.50;99.90
50570;DHT22;36525;49.398;7.614;2022-12-20T17:19:42;10.50;99.90
50570;DHT22;36525;49.398;7.614;2022-12-20T17:22:11;10.50;99.90
50570;DHT22;36525;49.398;7.614;2022-12-20T17:24:50;10.50;99.90
50570;DHT22;36525;49.398;7.614;2022-12-20T17:27:17;10.50;99.90
50570;DHT22;36525;49.398;7.614;2022-12-20T17:29:44;10.50;99.90
50570;DHT22;36525;49.398;7.614;2022-12-20T17:32:21;10.60;99.90
50570;DHT22;36525;49.398;7.614;2022-12-20T17:34:51;10.60;99.90
50570;DHT22;36525;49.398;7.614;2022-12-20T17:37:18;10.60;99.90
50570;DHT22;36525;49.398;7.614;2022-12-20T17:39:46;10.60;99.90
50570;DHT22;36525;49.398;7.614;2022-12-20T17:42:14;10.70;99.90
50570;DHT22;36525;49.398;7.614;2022-12-20T17:44:42;10.60;99.90
50570;DHT22;36525;49.398;7.614;2022-12-20T17:47:09;10.60;99.90
50570;DHT22;36525;49.398;7.614;2022-12-20T17:49:37;10.60;99.90
50570;DHT22;36525;49.398;7.614;2022-12-20T17:52:04;10.70;99.90
50570;DHT22;36525;49.398;7.614;2022-12-20T17:54:31;10.70;99.90
50570;DHT22;36525;49.398;7.614;2022-12-20T17:57:12;10.70;99.90
50570;DHT22;36525;49.398;7.614;2022-12-20T17:59:41;10.70;99.90
50570;DHT22;36525;49.398;7.614;2022-12-20T18:04:49;10.70;99.90
50570;DHT22;36525;49.398;7.614;2022-12-20T18:07:17;10.70;99.90
50570;DHT22;36525;49.398;7.614;2022-12-20T18:09:46;10.60;99.90
50570;DHT22;36525;49.398;7.614;2022-12-20T18:12:13;10.60;99.90
50570;DHT22;36525;49.398;7.614;2022-12-20T18:14:40;10.60;99.90
50570;DHT22;36525;49.398;7.614;2022-12-20T18:17:07;10.60;99.90
50570;DHT22;36525;49.398;7.614;2022-12-20T18:19:34;10.60;99.90
50570;DHT22;36525;49.398;7.614;2022-12-20T18:22:01;10.60;99.90
50570;DHT22;36525;49.398;7.614;2022-12-20T18:24:30;10.60;99.90
50570;DHT22;36525;49.398;7.614;2022-12-20T18:26:57;10.50;99.90
50570;DHT22;36525;49.398;7.614;2022-12-20T18:29:24;10.60;99.90
50570;DHT22;36525;49.398;7.614;2022-12-20T18:31:51;10.50;99.90
50570;DHT22;36525;49.398;7.614;2022-12-20T18:34:18;10.60;99.90
50570;DHT22;36525;49.398;7.614;2022-12-20T18:36:45;10.50;99.90
50570;DHT22;36525;49.398;7.614;2022-12-20T18:39:12;10.50;99.90
50570;DHT22;36525;49.398;7.614;2022-12-20T18:41:39;10.60;99.90
50570;DHT22;36525;49.398;7.614;2022-12-20T18:44:09;10.60;99.90
50570;DHT22;36525;49.398;7.614;2022-12-20T18:46:37;10.50;99.90
50570;DHT22;36525;49.398;7.614;2022-12-20T18:49:04;10.50;99.90
50570;DHT22;36525;49.398;7.614;2022-12-20T18:51:33;10.50;99.90
50570;DHT22;36525;49.398;7.614;2022-12-20T18:54:06;10.30;99.90
50570;DHT22;36525;49.398;7.614;2022-12-20T18:56:35;10.30;99.90
50570;DHT22;36525;49.398;7.614;2022-12-20T18:59:04;10.20;99.90
50570;DHT22;36525;49.398;7.614;2022-12-20T19:01:38;10.10;99.90
50570;DHT22;36525;49.398;7.614;2022-12-20T19:04:06;10.10;99.90
50570;DHT22;36525;49.398;7.614;2022-12-20T19:06:35;10.00;99.90
50570;DHT22;36525;49.398;7.614;2022-12-20T19:11:33;9.70;99.90
50570;DHT22;36525;49.398;7.614;2022-12-20T19:14:00;9.70;99.90
50570;DHT22;36525;49.398;7.614;2022-12-20T19:23:58;9.60;99.90
50570;DHT22;36525;49.398;7.614;2022-12-20T19:26:29;9.60;99.90
50570;DHT22;36525;49.398;7.614;2022-12-20T19:28:57;9.60;99.90
50570;DHT22;36525;49.398;7.614;2022-12-20T19:31:26;9.60;99.90
50570;DHT22;36525;49.398;7.614;2022-12-20T19:34:03;9.70;99.90
50570;DHT22;36525;49.398;7.614;2022-12-20T19:36:41;9.60;99.90
50570;DHT22;36525;49.398;7.614;2022-12-20T19:39:15;9.60;99.90
50570;DHT22;36525;49.398;7.614;2022-12-20T19:41:43;9.60;99.90
50570;DHT22;36525;49.398;7.614;2022-12-20T19:44:25;9.60;99.90
50570;DHT22;36525;49.398;7.614;2022-12-20T19:46:52;9.70;99.90
50570;DHT22;36525;49.398;7.614;2022-12-20T19:49:19;9.60;99.90
50570;DHT22;36525;49.398;7.614;2022-12-20T19:51:47;9.60;99.90
50570;DHT22;36525;49.398;7.614;2022-12-20T19:54:14;9.60;99.90
50570;DHT22;36525;49.398;7.614;2022-12-20T19:56:41;9.60;99.90
50570;DHT22;36525;49.398;7.614;2022-12-20T19:59:08;9.50;99.90
50570;DHT22;36525;49.398;7.614;2022-12-20T20:01:37;9.50;99.90
50570;DHT22;36525;49.398;7.614;2022-12-20T20:04:04;9.50;99.90
50570;DHT22;36525;49.398;7.614;2022-12-20T20:06:31;9.50;99.90
50570;DHT22;36525;49.398;7.614;2022-12-20T20:08:58;9.60;99.90
50570;DHT22;36525;49.398;7.614;2022-12-20T20:11:26;9.60;99.90
50570;DHT22;36525;49.398;7.614;2022-12-20T20:13:54;9.60;99.90
50570;DHT22;36525;49.398;7.614;2022-12-20T20:16:22;9.60;99.90
50570;DHT22;36525;49.398;7.614;2022-12-20T20:18:49;9.60;99.90
50570;DHT22;36525;49.398;7.614;2022-12-20T20:21:19;9.60;99.90
50570;DHT22;36525;49.398;7.614;2022-12-20T20:23:49;9.60;99.90
50570;DHT22;36525;49.398;7.614;2022-12-20T20:26:23;9.50;99.90
50570;DHT22;36525;49.398;7.614;2022-12-20T20:28:52;9.50;99.90
50570;DHT22;36525;49.398;7.614;2022-12-20T20:31:20;9.40;99.90
50570;DHT22;36525;49.398;7.614;2022-12-20T20:33:48;9.40;99.90
50570;DHT22;36525;49.398;7.614;2022-12-20T20:36:20;9.50;99.90
50570;DHT22;36525;49.398;7.614;2022-12-20T20:38:49;9.40;99.90
50570;DHT22;36525;49.398;7.614;2022-12-20T20:41:16;9.50;99.90
50570;DHT22;36525;49.398;7.614;2022-12-20T20:43:43;9.60;99.90
50570;DHT22;36525;49.398;7.614;2022-12-20T20:46:12;9.50;99.90
50570;DHT22;36525;49.398;7.614;2022-12-20T20:48:41;9.60;99.90
50570;DHT22;36525;49.398;7.614;2022-12-20T20:51:08;9.50;99.90
50570;DHT22;36525;49.398;7.614;2022-12-20T20:53:37;9.60;99.90
50570;DHT22;36525;49.398;7.614;2022-12-20T20:56:06;9.60;99.90
50570;DHT22;36525;49.398;7.614;2022-12-20T20:58:34;9.70;99.90
50570;DHT22;36525;49.398;7.614;2022-12-20T21:01:03;9.70;99.90
50570;DHT22;36525;49.398;7.614;2022-12-20T21:03:31;9.80;99.90
50570;DHT22;36525;49.398;7.614;2022-12-20T21:05:59;9.80;99.90
50570;DHT22;36525;49.398;7.614;2022-12-20T21:08:46;9.80;99.90
50570;DHT22;36525;49.398;7.614;2022-12-20T21:11:13;9.70;99.90
50570;DHT22;36525;49.398;7.614;2022-12-20T21:13:40;9.70;99.90
50570;DHT22;36525;49.398;7.614;2022-12-20T21:16:09;9.70;99.90
50570;DHT22;36525;49.398;7.614;2022-12-20T21:18:56;9.70;99.90
50570;DHT22;36525;49.398;7.614;2022-12-20T21:21:25;9.70;99.90
50570;DHT22;36525;49.398;7.614;2022-12-20T21:23:53;9.70;99.90
50570;DHT22;36525;49.398;7.614;2022-12-20T21:26:20;9.70;99.90
50570;DHT22;36525;49.398;7.614;2022-12-20T21:28:48;9.80;99.90
50570;DHT22;36525;49.398;7.614;2022-12-20T21:31:17;9.80;99.90
50570;DHT22;36525;49.398;7.614;2022-12-20T21:33:45;9.80;99.90
50570;DHT22;36525;49.398;7.614;2022-12-20T21:36:14;9.80;99.90
50570;DHT22;36525;49.398;7.614;2022-12-20T21:38:54;9.80;99.90
50570;DHT22;36525;49.398;7.614;2022-12-20T21:41:24;9.80;99.90
50570;DHT22;36525;49.398;7.614;2022-12-20T21:43:57;9.90;99.90
50570;DHT22;36525;49.398;7.614;2022-12-20T21:46:25;9.90;99.90
50570;DHT22;36525;49.398;7.614;2022-12-20T21:48:54;9.80;99.90
50570;DHT22;36525;49.398;7.614;2022-12-20T21:51:22;9.80;99.90
50570;DHT22;36525;49.398;7.614;2022-12-20T21:53:53;9.90;99.90
50570;DHT22;36525;49.398;7.614;2022-12-20T21:56:26;9.90;99.90
50570;DHT22;36525;49.398;7.614;2022-12-20T21:58:54;9.90;99.90
50570;DHT22;36525;49.398;7.614;2022-12-20T22:01:24;9.90;99.90
50570;DHT22;36525;49.398;7.614;2022-12-20T22:03:56;9.90;99.90
50570;DHT22;36525;49.398;7.614;2022-12-20T22:06:24;9.90;99.90
50570;DHT22;36525;49.398;7.614;2022-12-20T22:08:58;10.00;99.90
50570;DHT22;36525;49.398;7.614;2022-12-20T22:11:26;10.00;99.90
50570;DHT22;36525;49.398;7.614;2022-12-20T22:13:54;10.10;99.90
50570;DHT22;36525;49.398;7.614;2022-12-20T22:16:24;10.00;99.90
50570;DHT22;36525;49.398;7.614;2022-12-20T22:18:54;9.90;99.90
50570;DHT22;36525;49.398;7.614;2022-12-20T22:21:24;10.00;99.90
50570;DHT22;36525;49.398;7.614;2022-12-20T22:23:56;10.00;99.90
50570;DHT22;36525;49.398;7.614;2022-12-20T22:26:27;10.00;99.90
50570;DHT22;36525;49.398;7.614;2022-12-20T22:28:57;10.00;99.90
50570;DHT22;36525;49.398;7.614;2022-12-20T22:31:26;10.10;99.90
50570;DHT22;36525;49.398;7.614;2022-12-20T22:33:54;10.10;99.90
50570;DHT22;36525;49.398;7.614;2022-12-20T22:36:23;10.00;99.90
50570;DHT22;36525;49.398;7.614;2022-12-20T22:38:51;10.10;99.90
50570;DHT22;36525;49.398;7.614;2022-12-20T22:43:49;10.10;99.90
50570;DHT22;36525;49.398;7.614;2022-12-20T22:46:16;10.00;99.90
50570;DHT22;36525;49.398;7.614;2022-12-20T22:48:44;10.00;99.90
50570;DHT22;36525;49.398;7.614;2022-12-20T22:51:14;10.10;99.90
50570;DHT22;36525;49.398;7.614;2022-12-20T22:53:43;10.00;99.90
50570;DHT22;36525;49.398;7.614;2022-12-20T22:56:10;10.00;99.90
50570;DHT22;36525;49.398;7.614;2022-12-20T22:58:38;10.00;99.90
50570;DHT22;36525;49.398;7.614;2022-12-20T23:01:08;10.00;99.90
50570;DHT22;36525;49.398;7.614;2022-12-20T23:03:36;10.10;99.90
50570;DHT22;36525;49.398;7.614;2022-12-20T23:06:05;10.00;99.90
50570;DHT22;36525;49.398;7.614;2022-12-20T23:08:35;10.00;99.90
50570;DHT22;36525;49.398;7.614;2022-12-20T23:11:05;10.00;99.90
50570;DHT22;36525;49.398;7.614;2022-12-20T23:14:04;10.00;99.90
50570;DHT22;36525;49.398;7.614;2022-12-20T23:16:55;10.00;99.90
50570;DHT22;36525;49.398;7.614;2022-12-20T23:19:22;10.10;99.90
50570;DHT22;36525;49.398;7.614;2022-12-20T23:21:49;10.00;99.90
50570;DHT22;36525;49.398;7.614;2022-12-20T23:24:38;10.10;99.90
50570;DHT22;36525;49.398;7.614;2022-12-20T23:27:05;10.10;99.90
50570;DHT22;36525;49.398;7.614;2022-12-20T23:29:33;10.00;99.90
50570;DHT22;36525;49.398;7.614;2022-12-20T23:32:00;10.00;99.90
50570;DHT22;36525;49.398;7.614;2022-12-20T23:34:27;10.00;99.90
50570;DHT22;36525;49.398;7.614;2022-12-20T23:36:53;10.10;99.90
50570;DHT22;36525;49.398;7.614;2022-12-20T23:39:20;10.00;99.90
50570;DHT22;36525;49.398;7.614;2022-12-20T23:41:47;10.00;99.90
50570;DHT22;36525;49.398;7.614;2022-12-20T23:44:14;10.00;99.90
50570;DHT22;36525;49.398;7.614;2022-12-20T23:46:41;10.00;99.90
50570;DHT22;36525;49.398;7.614;2022-12-20T23:49:08;10.00;99.90
50570;DHT22;36525;49.398;7.614;2022-12-20T23:51:34;10.10;99.90
50570;DHT22;36525;49.398;7.614;2022-12-20T23:54:01;10.00;99.90
50570;DHT22;36525;49.398;7.614;2022-12-20T23:56:28;10.00;99.90
50570;DHT22;36525;49.398;7.614;2022-12-20T23:58:55;10.10;99.90
